createdAt,value
2019-01-28T00:00:36.884Z,97178.38
2019-01-28T00:03:08.848Z,97172.78
2019-01-28T00:05:38.600Z,97170.17
2019-01-28T00:08:08.410Z,97169.32
2019-01-28T00:10:38.185Z,97165.45
2019-01-28T00:13:08.017Z,97164.97
2019-01-28T00:15:37.914Z,97171.00
2019-01-28T00:18:07.630Z,97175.31
2019-01-28T00:20:37.325Z,97181.31
2019-01-28T00:23:07.183Z,97183.95
2019-01-28T00:25:36.988Z,97180.55
2019-01-28T00:28:06.676Z,97169.81
2019-01-28T00:30:36.072Z,97177.97
2019-01-28T00:33:05.961Z,97185.25
2019-01-28T00:35:35.714Z,97191.73
2019-01-28T00:38:05.418Z,97181.84
2019-01-28T00:40:34.822Z,97177.57
2019-01-28T00:43:04.649Z,97179.73
2019-01-28T00:45:34.456Z,97171.99
2019-01-28T00:48:04.267Z,97171.16
2019-01-28T00:50:34.063Z,97173.32
2019-01-28T00:53:03.672Z,97183.66
2019-01-28T00:55:33.332Z,97195.69
2019-01-28T00:58:03.223Z,97200.84
2019-01-28T01:00:33.620Z,97205.48
2019-01-28T01:03:03.018Z,97208.42
2019-01-28T01:05:32.516Z,97218.27
2019-01-28T01:08:02.312Z,97217.34
2019-01-28T01:10:32.151Z,97215.14
2019-01-28T01:13:01.877Z,97212.51
2019-01-28T01:15:31.266Z,97215.45
2019-01-28T01:18:00.762Z,97210.25
2019-01-28T01:20:30.407Z,97206.78
2019-01-28T01:22:59.981Z,97202.73
2019-01-28T01:25:29.688Z,97196.23
2019-01-28T01:27:59.434Z,97192.68
2019-01-28T01:30:29.111Z,97187.52
2019-01-28T01:32:59.087Z,97184.01
2019-01-28T01:35:28.832Z,97183.93
2019-01-28T01:37:58.748Z,97186.89
2019-01-28T01:40:28.529Z,97185.47
2019-01-28T01:42:58.212Z,97171.13
2019-01-28T01:45:28.073Z,97166.12
2019-01-28T01:47:57.893Z,97160.75
2019-01-28T01:50:27.564Z,97154.17
2019-01-28T01:52:57.324Z,97150.16
2019-01-28T01:55:26.845Z,97151.91
2019-01-28T01:57:56.611Z,97159.26
2019-01-28T02:00:26.327Z,97162.72
2019-01-28T02:02:56.219Z,97157.36
2019-01-28T02:05:25.736Z,97150.77
2019-01-28T02:07:55.153Z,97145.16
2019-01-28T02:10:24.856Z,97154.02
2019-01-28T02:12:54.559Z,97148.02
2019-01-28T02:15:24.285Z,97148.32
2019-01-28T02:17:54.124Z,97137.09
2019-01-28T02:20:23.639Z,97134.61
2019-01-28T02:22:53.204Z,97132.19
2019-01-28T02:25:22.597Z,97141.59
2019-01-28T02:27:52.344Z,97144.07
2019-01-28T02:30:21.927Z,97136.14
2019-01-28T02:32:51.343Z,97124.06
2019-01-28T02:35:20.748Z,97131.08
2019-01-28T02:37:50.376Z,97133.33
2019-01-28T02:40:20.255Z,97127.31
2019-01-28T02:42:50.007Z,97123.91
2019-01-28T02:45:19.776Z,97121.36
2019-01-28T02:47:49.395Z,97121.36
2019-01-28T02:50:19.496Z,97114.47
2019-01-28T02:52:49.376Z,97111.04
2019-01-28T02:55:19.698Z,97113.22
2019-01-28T02:57:49.242Z,97109.86
2019-01-28T03:00:20.806Z,97106.52
2019-01-28T03:02:50.411Z,97096.98
2019-01-28T03:05:20.716Z,97100.44
2019-01-28T03:07:50.330Z,97094.00
2019-01-28T03:10:21.811Z,97099.94
2019-01-28T03:12:51.756Z,97096.85
2019-01-28T03:15:21.547Z,97106.20
2019-01-28T03:17:51.108Z,97105.36
2019-01-28T03:20:21.190Z,97104.95
2019-01-28T03:22:51.040Z,97101.94
2019-01-28T03:25:21.120Z,97097.14
2019-01-28T03:27:50.516Z,97101.75
2019-01-28T03:30:21.303Z,97098.80
2019-01-28T03:32:50.786Z,97084.70
2019-01-28T03:35:20.584Z,97094.12
2019-01-28T03:37:50.410Z,97106.95
2019-01-28T03:40:21.334Z,97106.48
2019-01-28T03:42:51.438Z,97100.81
2019-01-28T03:45:22.340Z,97096.08
2019-01-28T03:47:52.010Z,97085.41
2019-01-28T03:50:21.627Z,97091.06
2019-01-28T03:52:51.523Z,97094.48
2019-01-28T03:55:21.033Z,97100.45
2019-01-28T03:57:50.479Z,97099.06
2019-01-28T04:00:22.304Z,97102.88
2019-01-28T04:02:52.052Z,97101.14
2019-01-28T04:05:22.395Z,97095.00
2019-01-28T04:07:52.044Z,97091.92
2019-01-28T04:10:23.554Z,97095.78
2019-01-28T04:12:53.096Z,97087.40
2019-01-28T04:15:23.987Z,97078.22
2019-01-28T04:17:53.863Z,97074.50
2019-01-28T04:20:25.237Z,97077.25
2019-01-28T04:22:55.195Z,97073.45
2019-01-28T04:25:24.726Z,97069.31
2019-01-28T04:27:54.458Z,97073.12
2019-01-28T04:30:25.332Z,97064.59
2019-01-28T04:32:54.811Z,97062.12
2019-01-28T04:35:24.510Z,97061.30
2019-01-28T04:37:54.118Z,97061.27
2019-01-28T04:40:23.594Z,97058.25
2019-01-28T04:42:53.311Z,97054.95
2019-01-28T04:45:22.699Z,97049.55
2019-01-28T04:47:52.511Z,97050.81
2019-01-28T04:50:22.433Z,97044.31
2019-01-28T04:52:51.976Z,97040.47
2019-01-28T04:55:21.782Z,97044.37
2019-01-28T04:57:51.344Z,97047.86
2019-01-28T05:00:22.700Z,97053.88
2019-01-28T05:02:52.200Z,97057.77
2019-01-28T05:05:22.098Z,97063.69
2019-01-28T05:07:51.601Z,97063.27
2019-01-28T05:10:21.628Z,97060.27
2019-01-28T05:12:51.460Z,97063.77
2019-01-28T05:15:21.457Z,97063.77
2019-01-28T05:17:51.281Z,97063.77
2019-01-28T05:20:21.793Z,97065.92
2019-01-28T05:22:51.502Z,97061.56
2019-01-28T05:25:21.331Z,97059.40
2019-01-28T05:27:53.153Z,97056.48
2019-01-28T05:30:24.254Z,97052.55
2019-01-28T05:32:54.235Z,97050.01
2019-01-28T05:35:24.001Z,97040.21
2019-01-28T05:37:54.050Z,97040.27
2019-01-28T05:40:24.834Z,97053.08
2019-01-28T05:42:54.712Z,97062.99
2019-01-28T05:45:25.725Z,97058.25
2019-01-28T05:47:55.280Z,97070.00
2019-01-28T05:50:24.904Z,97073.59
2019-01-28T05:52:54.299Z,97063.80
2019-01-28T05:55:23.803Z,97058.23
2019-01-28T05:57:53.751Z,97059.08
2019-01-28T06:00:31.130Z,97061.19
2019-01-28T06:03:00.793Z,97059.42
2019-01-28T06:05:30.391Z,97064.19
2019-01-28T06:08:00.159Z,97069.30
2019-01-28T06:10:30.021Z,97068.84
2019-01-28T06:12:59.718Z,97063.20
2019-01-28T06:15:29.338Z,97066.63
2019-01-28T06:17:58.927Z,97068.62
2019-01-28T06:20:28.860Z,97066.92
2019-01-28T06:22:58.346Z,97071.23
2019-01-28T06:25:28.077Z,97074.92
2019-01-28T06:27:57.706Z,97081.59
2019-01-28T06:30:29.086Z,97087.67
2019-01-28T06:32:58.486Z,97085.92
2019-01-28T06:35:27.891Z,97080.38
2019-01-28T06:37:57.810Z,97078.78
2019-01-28T06:40:30.112Z,97078.62
2019-01-28T06:42:59.815Z,97071.41
2019-01-28T06:45:29.434Z,97059.22
2019-01-28T06:47:59.333Z,97063.09
2019-01-28T06:50:29.093Z,97065.33
2019-01-28T06:52:58.979Z,97079.44
2019-01-28T06:55:28.765Z,97072.34
2019-01-28T06:57:58.348Z,97074.87
2019-01-28T07:00:46.218Z,97074.30
2019-01-28T07:03:16.090Z,97072.09
2019-01-28T07:05:45.930Z,97081.67
2019-01-28T07:08:15.756Z,97098.11
2019-01-28T07:10:45.331Z,97094.80
2019-01-28T07:13:15.187Z,97081.97
2019-01-28T07:15:44.984Z,97083.19
2019-01-28T07:32:28.534Z,97079.59
2019-01-28T07:34:58.162Z,97077.86
2019-01-28T07:37:27.871Z,97071.92
2019-01-28T07:39:57.473Z,97069.92
2019-01-28T07:42:27.204Z,97074.87
2019-01-28T07:44:56.691Z,97077.59
2019-01-28T07:47:26.586Z,97081.29
2019-01-28T07:49:56.023Z,97082.48
2019-01-28T07:52:25.443Z,97077.85
2019-01-28T07:54:55.204Z,97063.59
2019-01-28T07:57:25.001Z,97071.75
2019-01-28T07:59:54.407Z,97074.11
2019-01-28T08:02:24.205Z,97071.75
2019-01-28T08:04:53.945Z,97076.16
2019-01-28T08:07:23.564Z,97075.20
2019-01-28T08:09:53.139Z,97069.64
2019-01-28T08:12:23.007Z,97063.88
2019-01-28T08:14:52.748Z,97069.02
2019-01-28T08:17:22.357Z,97056.06
2019-01-28T08:19:51.884Z,97049.38
2019-01-28T08:22:21.686Z,97054.66
2019-01-28T08:24:51.086Z,97058.03
2019-01-28T08:27:20.900Z,97058.66
2019-01-28T08:29:50.396Z,97053.71
2019-01-28T08:32:20.029Z,97046.39
2019-01-28T08:34:49.715Z,97046.67
2019-01-28T08:37:19.301Z,97046.05
2019-01-28T08:39:48.810Z,97048.89
2019-01-28T08:42:18.726Z,97040.95
2019-01-28T08:44:48.352Z,97042.11
2019-01-28T08:47:17.922Z,97047.98
2019-01-28T08:49:47.769Z,97041.14
2019-01-28T08:52:17.431Z,97033.81
2019-01-28T08:54:47.204Z,97044.91
2019-01-28T08:57:16.972Z,97046.53
2019-01-28T08:59:46.576Z,97043.55
2019-01-28T09:02:15.980Z,97055.55
2019-01-28T09:04:45.775Z,97055.16
2019-01-28T09:07:15.726Z,97047.92
2019-01-28T09:09:45.524Z,97056.66
2019-01-28T09:12:15.094Z,97060.36
2019-01-28T09:14:45.004Z,97070.72
2019-01-28T09:17:14.491Z,97071.88
2019-01-28T09:19:44.159Z,97072.06
2019-01-28T09:22:13.747Z,97079.94
2019-01-28T09:24:43.240Z,97083.74
2019-01-28T09:27:12.809Z,97076.63
2019-01-28T09:29:42.400Z,97081.42
2019-01-28T09:32:11.956Z,97082.87
2019-01-28T09:34:41.356Z,97083.03
2019-01-28T09:37:14.243Z,97084.18
2019-01-28T09:39:43.835Z,97080.52
2019-01-28T09:42:13.393Z,97068.08
2019-01-28T09:44:42.837Z,97063.14
2019-01-28T09:47:12.282Z,97058.58
2019-01-28T09:49:41.792Z,97053.56
2019-01-28T09:52:12.631Z,97054.42
2019-01-28T09:54:43.611Z,97044.98
2019-01-28T09:57:13.212Z,97036.27
2019-01-28T09:59:42.927Z,97038.69
2019-01-28T10:02:12.791Z,97029.58
2019-01-28T10:04:42.413Z,97026.30
2019-01-28T10:07:13.048Z,97031.98
2019-01-28T10:09:42.553Z,97015.89
2019-01-28T10:12:12.141Z,97017.43
2019-01-28T10:14:44.254Z,97002.48
2019-01-28T10:17:14.462Z,97002.91
2019-01-28T10:19:44.006Z,97008.52
2019-01-28T10:22:13.807Z,97003.23
2019-01-28T10:24:43.497Z,97002.72
2019-01-28T10:27:12.928Z,96999.48
2019-01-28T10:29:42.535Z,96994.61
2019-01-28T10:32:13.805Z,96994.90
2019-01-28T10:34:43.408Z,96983.61
2019-01-28T10:37:13.038Z,96975.80
2019-01-28T10:39:42.900Z,96973.63
2019-01-28T10:42:12.505Z,96973.52
2019-01-28T10:44:42.019Z,96970.72
2019-01-28T10:47:11.860Z,96967.54
2019-01-28T10:49:41.351Z,96958.80
2019-01-28T10:52:11.255Z,96944.69
2019-01-28T10:54:40.905Z,96947.96
2019-01-28T10:57:10.709Z,96950.88
2019-01-28T10:59:40.090Z,96946.77
2019-01-28T11:02:10.530Z,96954.06
2019-01-28T11:04:40.078Z,96954.40
2019-01-28T11:07:09.568Z,96955.75
2019-01-28T11:09:39.222Z,96946.69
2019-01-28T11:12:08.833Z,96949.94
2019-01-28T11:14:38.286Z,96947.96
2019-01-28T11:17:08.184Z,96938.84
2019-01-28T11:19:37.987Z,96935.17
2019-01-28T11:22:07.374Z,96940.17
2019-01-28T11:24:37.457Z,96927.69
2019-01-28T11:27:06.964Z,96921.75
2019-01-28T11:29:36.458Z,96916.17
2019-01-28T11:32:06.115Z,96914.63
2019-01-28T11:34:35.582Z,96902.70
2019-01-28T11:37:05.400Z,96905.56
2019-01-28T11:39:35.101Z,96899.03
2019-01-28T11:42:04.846Z,96897.16
2019-01-28T11:44:34.715Z,96892.50
2019-01-28T11:47:04.184Z,96886.72
2019-01-28T11:49:33.931Z,96877.56
2019-01-28T11:52:03.369Z,96871.20
2019-01-28T11:54:33.080Z,96876.44
2019-01-28T11:57:02.681Z,96873.03
2019-01-28T11:59:32.164Z,96873.96
2019-01-28T12:02:01.771Z,96881.47
2019-01-28T12:04:31.172Z,96878.84
2019-01-28T12:07:00.930Z,96881.67
2019-01-28T12:09:30.417Z,96883.84
2019-01-28T12:12:00.145Z,96895.62
2019-01-28T12:14:29.994Z,96899.77
2019-01-28T12:16:59.517Z,96909.50
2019-01-28T12:19:29.052Z,96906.64
2019-01-28T12:21:59.002Z,96905.48
2019-01-28T12:24:28.506Z,96901.69
2019-01-28T12:26:58.118Z,96905.38
2019-01-28T12:29:27.620Z,96901.31
2019-01-28T12:31:57.185Z,96904.30
2019-01-28T12:34:26.935Z,96902.14
2019-01-28T12:36:56.423Z,96892.89
2019-01-28T12:39:26.200Z,96891.84
2019-01-28T12:41:55.653Z,96885.21
2019-01-28T12:44:25.458Z,96881.13
2019-01-28T12:46:54.946Z,96875.23
2019-01-28T12:49:24.351Z,96878.86
2019-01-28T12:51:53.979Z,96881.89
2019-01-28T12:54:23.555Z,96881.17
2019-01-28T12:56:53.002Z,96878.36
2019-01-28T12:59:22.593Z,96884.48
2019-01-28T13:01:52.115Z,96880.17
2019-01-28T13:04:21.777Z,96874.63
2019-01-28T13:06:51.436Z,96867.81
2019-01-28T13:09:20.945Z,96862.33
2019-01-28T13:11:50.783Z,96860.09
2019-01-28T13:14:20.499Z,96853.58
2019-01-28T13:16:49.913Z,96849.91
2019-01-28T13:19:19.786Z,96851.70
2019-01-28T13:21:49.525Z,96850.48
2019-01-28T13:24:18.961Z,96850.23
2019-01-28T13:26:48.379Z,96842.81
2019-01-28T13:29:17.857Z,96842.62
2019-01-28T13:31:47.531Z,96837.13
2019-01-28T13:34:17.094Z,96829.86
2019-01-28T13:36:47.073Z,96832.70
2019-01-28T13:39:17.692Z,96827.63
2019-01-28T13:41:47.312Z,96835.87
2019-01-28T13:44:17.120Z,96837.23
2019-01-28T13:46:46.838Z,96843.94
2019-01-28T13:49:16.439Z,96829.25
2019-01-28T13:51:45.940Z,96840.22
2019-01-28T13:54:15.446Z,96835.22
2019-01-28T13:56:44.979Z,96843.41
2019-01-28T13:59:16.485Z,96854.22
2019-01-28T14:01:46.081Z,96858.62
2019-01-28T14:04:15.627Z,96860.87
2019-01-28T14:06:45.128Z,96862.23
2019-01-28T14:09:14.723Z,96863.25
2019-01-28T14:11:44.207Z,96868.61
2019-01-28T14:14:14.049Z,96860.40
2019-01-28T14:16:43.662Z,96863.98
2019-01-28T14:19:13.354Z,96863.59
2019-01-28T14:21:43.197Z,96854.92
2019-01-28T14:24:13.867Z,96866.84
2019-01-28T14:26:43.652Z,96859.50
2019-01-28T14:29:13.627Z,96868.18
2019-01-28T14:31:43.337Z,96856.36
2019-01-28T14:34:13.044Z,96850.23
2019-01-28T14:36:42.452Z,96847.87
2019-01-28T14:39:14.257Z,96850.23
2019-01-28T14:41:43.891Z,96861.86
2019-01-28T14:44:13.556Z,96853.83
2019-01-28T14:46:43.327Z,96854.42
2019-01-28T14:49:12.886Z,96844.60
2019-01-28T14:51:43.033Z,96839.83
2019-01-28T14:54:12.930Z,96833.39
2019-01-28T14:56:42.899Z,96827.35
2019-01-28T14:59:12.455Z,96829.98
2019-01-28T15:01:42.230Z,96826.00
2019-01-28T15:04:11.771Z,96818.75
2019-01-28T15:06:41.746Z,96827.90
2019-01-28T15:09:12.864Z,96821.81
2019-01-28T15:11:42.374Z,96814.02
2019-01-28T15:14:11.886Z,96818.67
2019-01-28T15:16:41.673Z,96817.64
2019-01-28T15:19:14.792Z,96808.19
2019-01-28T15:21:44.305Z,96807.41
2019-01-28T15:24:13.724Z,96804.92
2019-01-28T15:26:43.256Z,96798.95
2019-01-28T15:29:12.765Z,96799.67
2019-01-28T15:31:42.454Z,96798.90
2019-01-28T15:34:12.319Z,96796.59
2019-01-28T15:36:41.829Z,96801.41
2019-01-28T15:39:11.963Z,96792.78
2019-01-28T15:41:41.772Z,96798.42
2019-01-28T15:44:11.579Z,96801.91
2019-01-28T15:46:41.313Z,96800.06
2019-01-28T15:49:11.193Z,96791.38
2019-01-28T15:51:40.756Z,96794.41
2019-01-28T15:54:10.607Z,96787.25
2019-01-28T15:56:40.370Z,96787.70
2019-01-28T15:59:10.230Z,96790.77
2019-01-28T16:01:39.969Z,96797.94
2019-01-28T16:04:09.479Z,96795.02
2019-01-28T16:06:39.004Z,96782.38
2019-01-28T16:09:10.345Z,96781.52
2019-01-28T16:11:39.939Z,96787.29
2019-01-28T16:14:09.446Z,96764.32
2019-01-28T16:16:39.154Z,96782.39
2019-01-28T16:19:09.370Z,96773.67
2019-01-28T16:21:39.309Z,96772.09
2019-01-28T16:24:13.718Z,96772.77
2019-01-28T16:26:43.243Z,96775.63
2019-01-28T16:29:13.196Z,96772.73
2019-01-28T16:31:43.155Z,96772.73
2019-01-28T16:34:12.966Z,96766.64
2019-01-28T16:36:44.458Z,96778.08
2019-01-28T16:39:14.103Z,96790.68
2019-01-28T16:41:44.226Z,96803.48
2019-01-28T16:44:13.926Z,96795.13
2019-01-28T16:46:43.839Z,96790.72
2019-01-28T16:49:15.089Z,96786.63
2019-01-28T16:51:46.908Z,96777.01
2019-01-28T16:54:16.528Z,96782.27
2019-01-28T16:56:46.330Z,96787.30
2019-01-28T16:59:16.098Z,96787.81
2019-01-28T17:01:48.397Z,96790.52
2019-01-28T17:04:20.832Z,96776.41
2019-01-28T17:06:50.322Z,96790.38
2019-01-28T17:09:20.065Z,96794.28
2019-01-28T17:11:49.867Z,96789.77
2019-01-28T17:14:19.856Z,96779.17
2019-01-28T17:16:49.807Z,96795.27
2019-01-28T17:19:19.433Z,96810.24
2019-01-28T17:21:48.947Z,96807.08
2019-01-28T17:24:18.459Z,96821.04
2019-01-28T17:26:50.603Z,96817.58
2019-01-28T17:29:20.388Z,96809.56
2019-01-28T17:31:49.956Z,96816.50
2019-01-28T17:34:19.576Z,96813.98
2019-01-28T17:36:49.379Z,96821.58
2019-01-28T17:39:18.798Z,96808.77
2019-01-28T17:41:48.329Z,96808.88
2019-01-28T17:44:18.189Z,96807.14
2019-01-28T17:46:47.797Z,96807.87
2019-01-28T17:49:17.651Z,96807.26
2019-01-28T17:51:47.518Z,96801.90
2019-01-28T17:54:17.055Z,96795.73
2019-01-28T17:56:46.994Z,96785.23
2019-01-28T17:59:17.379Z,96787.29
2019-01-28T18:01:46.883Z,96802.78
2019-01-28T18:04:16.617Z,96804.41
2019-01-28T18:06:46.170Z,96804.92
2019-01-28T18:09:15.962Z,96783.87
2019-01-28T18:11:45.840Z,96787.90
2019-01-28T18:14:15.811Z,96786.05
2019-01-28T18:16:45.620Z,96807.09
2019-01-28T18:19:15.478Z,96794.98
2019-01-28T18:21:45.277Z,96793.69
2019-01-28T18:24:15.129Z,96793.86
2019-01-28T18:26:44.982Z,96799.00
2019-01-28T18:29:14.517Z,96800.27
2019-01-28T18:31:44.410Z,96802.42
2019-01-28T18:34:14.183Z,96790.80
2019-01-28T18:36:44.026Z,96797.88
2019-01-28T18:39:14.978Z,96809.36
2019-01-28T18:41:44.701Z,96816.36
2019-01-28T18:44:16.389Z,96819.61
2019-01-28T18:46:46.141Z,96819.55
2019-01-28T18:49:16.515Z,96816.69
2019-01-28T18:51:46.055Z,96821.07
2019-01-28T18:54:15.591Z,96827.15
2019-01-28T18:56:45.434Z,96824.59
2019-01-28T18:59:15.127Z,96818.48
2019-01-28T19:01:44.667Z,96814.73
2019-01-28T19:04:14.462Z,96816.38
2019-01-28T19:07:09.371Z,96801.79
2019-01-28T19:09:43.681Z,96799.30
2019-01-28T19:12:30.686Z,96804.17
2019-01-28T19:15:37.487Z,96814.66
2019-01-28T19:18:17.331Z,96795.45
2019-01-28T19:21:08.117Z,96798.50
2019-01-28T19:23:37.100Z,96804.38
2019-01-28T19:26:06.987Z,96804.11
2019-01-28T19:28:39.922Z,96805.09
2019-01-28T19:31:09.839Z,96798.66
2019-01-28T19:33:40.842Z,96797.14
2019-01-28T19:36:10.465Z,96808.52
2019-01-28T19:38:40.271Z,96810.38
2019-01-28T19:41:12.498Z,96817.46
2019-01-28T19:43:42.408Z,96820.91
2019-01-28T19:46:12.058Z,96830.81
2019-01-28T19:48:41.860Z,96828.75
2019-01-28T19:51:15.742Z,96827.64
2019-01-28T19:53:42.914Z,96830.64
2019-01-28T19:56:12.745Z,96834.92
2019-01-28T19:58:43.683Z,96845.90
2019-01-28T20:01:13.602Z,96840.50
2019-01-28T20:03:43.396Z,96842.38
2019-01-28T20:06:13.214Z,96849.86
2019-01-28T20:08:44.855Z,96841.16
2019-01-28T20:11:15.034Z,96844.53
2019-01-28T20:13:44.582Z,96844.14
2019-01-28T20:16:14.539Z,96848.06
2019-01-28T20:18:44.094Z,96833.77
2019-01-28T20:21:14.039Z,96843.89
2019-01-28T20:23:43.914Z,96855.22
2019-01-28T20:26:13.474Z,96869.19
2019-01-28T20:28:43.045Z,96859.94
2019-01-28T20:31:12.981Z,96858.48
2019-01-28T20:33:42.747Z,96865.86
2019-01-28T20:36:12.766Z,96872.00
2019-01-28T20:38:42.572Z,96865.98
2019-01-28T20:41:18.692Z,96875.52
2019-01-28T20:43:57.419Z,96881.09
2019-01-28T20:46:26.781Z,96874.95
2019-01-28T20:48:56.321Z,96866.98
2019-01-28T20:51:32.260Z,96860.31
2019-01-28T20:53:57.665Z,96864.20
2019-01-28T20:56:27.539Z,96857.48
2019-01-28T20:58:57.116Z,96856.13
2019-01-28T21:01:26.648Z,96846.10
2019-01-28T21:03:56.430Z,96851.71
2019-01-28T21:06:26.269Z,96842.31
2019-01-28T21:08:55.799Z,96847.92
2019-01-28T21:11:27.933Z,96849.26
2019-01-28T21:13:57.414Z,96844.56
2019-01-28T21:16:27.096Z,96859.67
2019-01-28T21:18:56.895Z,96849.62
2019-01-28T21:21:26.621Z,96863.63
2019-01-28T21:23:56.127Z,96848.66
2019-01-28T21:26:25.657Z,96837.53
2019-01-28T21:28:55.151Z,96841.66
2019-01-28T21:31:28.011Z,96831.83
2019-01-28T21:33:57.521Z,96830.20
2019-01-28T21:36:34.094Z,96825.63
2019-01-28T21:39:05.286Z,96822.37
2019-01-28T21:41:34.947Z,96827.67
2019-01-28T21:44:04.845Z,96827.58
2019-01-28T21:46:34.716Z,96822.33
2019-01-28T21:49:04.645Z,96833.62
2019-01-28T21:51:34.333Z,96844.80
2019-01-28T21:54:04.457Z,96850.95
2019-01-28T21:56:34.270Z,96855.16
2019-01-28T21:59:03.884Z,96850.31
2019-01-28T22:01:33.492Z,96837.36
2019-01-28T22:04:03.449Z,96837.03
2019-01-28T22:06:32.948Z,96842.84
2019-01-28T22:09:02.718Z,96839.86
2019-01-28T22:11:32.422Z,96849.72
2019-01-28T22:14:02.025Z,96859.28
2019-01-28T22:16:31.882Z,96857.81
2019-01-28T22:19:01.763Z,96854.47
2019-01-28T22:21:31.272Z,96859.38
2019-01-28T22:24:01.162Z,96862.63
2019-01-28T22:26:30.971Z,96851.96
2019-01-28T22:29:01.304Z,96863.91
2019-01-28T22:31:30.800Z,96875.07
2019-01-28T22:34:00.676Z,96879.02
2019-01-28T22:36:30.441Z,96878.16
2019-01-28T22:39:00.646Z,96867.30
2019-01-28T22:41:30.812Z,96868.44
2019-01-28T22:44:00.595Z,96867.14
2019-01-28T22:46:30.443Z,96861.88
2019-01-28T22:49:00.053Z,96858.48
2019-01-28T22:51:29.754Z,96853.47
2019-01-28T22:53:59.264Z,96848.30
2019-01-28T22:56:28.963Z,96861.80
2019-01-28T22:58:58.473Z,96844.54
2019-01-28T23:01:31.811Z,96851.21
2019-01-28T23:04:01.644Z,96855.13
2019-01-28T23:06:31.262Z,96861.37
2019-01-28T23:09:01.166Z,96846.89
2019-01-28T23:11:30.994Z,96854.17
2019-01-28T23:14:00.919Z,96850.52
2019-01-28T23:16:30.795Z,96840.13
2019-01-28T23:19:00.549Z,96836.89
2019-01-28T23:21:30.055Z,96850.54
2019-01-28T23:23:59.576Z,96870.78
2019-01-28T23:26:29.367Z,96867.98
2019-01-28T23:28:58.879Z,96860.94
2019-01-28T23:31:28.880Z,96867.17
2019-01-28T23:33:58.484Z,96853.13
2019-01-28T23:36:28.404Z,96843.67
2019-01-28T23:38:58.112Z,96855.32
2019-01-28T23:41:27.719Z,96853.13
2019-01-28T23:43:57.407Z,96856.24
2019-01-28T23:46:27.303Z,96869.13
2019-01-28T23:48:57.036Z,96872.45
2019-01-28T23:51:26.832Z,96861.11
2019-01-28T23:53:56.536Z,96873.92
2019-01-28T23:56:26.060Z,96885.22
2019-01-28T23:58:55.988Z,96875.02
